Terminal Aerodrome Forecast
Issued by NWS Paducah, KY

Home | Current Version | Previous Version | Text Only | Print | Product List | Glossary On
Versions: 1 2 3 4 5 6 7 8 9 10 11 12 13 14 15 16 17 18 19 20 21 22 23 24 25 26 27
519
FTUS43 KPAH 291720
TAFEVV
TAF
KEVV 291720Z 2918/3018 20005KT P6SM VCTS SCT025CB OVC060
      TEMPO 2918/2922 2SM TSRA BR OVC015CB
     FM300000 VRB02KT P6SM SCT040 BKN080
     FM300800 00000KT 5SM BR SCT080
     FM301500 26004KT P6SM SCT015 BKN050=

USA.gov is the U.S. government's official web portal to all federal, state and local government web resources and services.